Wetterdaten: Dienstag, 06.02.2007
Datum Zeit Temp. A. Feuchte A. Luftdruck Regen Wind Richtung Richtung UV Solar Windben
06.02.2007 00:08 2,2 C 99 % 1010,0 hPa 0,0 mm 7,5 km/h (2 Bft) W 275 0 UV-I 0 W/m 7,5 km/h (2 Bft)
06.02.2007 00:23 2,3 C 98 % 1010,0 hPa 0,0 mm 2,1 km/h (1 Bft) W 270 0 UV-I 0 W/m 2,1 km/h (1 Bft)
06.02.2007 00:38 2,1 C 98 % 1010,0 hPa 0,0 mm 0,0 km/h (0 Bft) W 260 0 UV-I 0 W/m 0,0 km/h (0 Bft)
06.02.2007 00:53 1,8 C 98 % 1010,0 hPa 0,0 mm 6,4 km/h (2 Bft) W-SW 250 0 UV-I 0 W/m 6,4 km/h (2 Bft)
06.02.2007 01:08 1,4 C 99 % 1010,0 hPa 0,0 mm 4,8 km/h (1 Bft) W-SW 250 0 UV-I 0 W/m 4,8 km/h (1 Bft)
06.02.2007 01:23 1,1 C 99 % 1009,0 hPa 0,0 mm 0,0 km/h (0 Bft) W-SW 240 0 UV-I 0 W/m 0,0 km/h (0 Bft)
06.02.2007 01:38 0,9 C 100 % 1009,0 hPa 0,0 mm 7,9 km/h (2 Bft) W-SW 250 0 UV-I 0 W/m 7,9 km/h (2 Bft)
06.02.2007 01:54 0,5 C 100 % 1009,0 hPa 0,0 mm 0,0 km/h (0 Bft) W-SW 240 0 UV-I 0 W/m 0,0 km/h (0 Bft)
06.02.2007 02:09 0,5 C 100 % 1009,0 hPa 0,0 mm 0,0 km/h (0 Bft) SW 230 0 UV-I 0 W/m 0,0 km/h (0 Bft)
06.02.2007 02:24 0,9 C 100 % 1009,0 hPa 0,0 mm 8,9 km/h (2 Bft) W-SW 255 0 UV-I 0 W/m 8,9 km/h (2 Bft)
06.02.2007 02:38 0,9 C 100 % 1009,0 hPa 0,0 mm 6,2 km/h (2 Bft) W 265 0 UV-I 0 W/m 6,2 km/h (2 Bft)
06.02.2007 02:53 0,9 C 100 % 1009,0 hPa 0,0 mm 9,4 km/h (2 Bft) W-SW 255 0 UV-I 0 W/m 9,4 km/h (2 Bft)
06.02.2007 03:08 0,7 C 100 % 1009,0 hPa 0,0 mm 0,0 km/h (0 Bft) SW 225 0 UV-I 0 W/m 0,0 km/h (0 Bft)
06.02.2007 03:23 0,4 C 100 % 1008,0 hPa 0,0 mm 0,0 km/h (0 Bft) S 185 0 UV-I 0 W/m 0,0 km/h (0 Bft)
06.02.2007 03:38 0,4 C 100 % 1008,0 hPa 0,0 mm 8,0 km/h (2 Bft) S-SW 195 0 UV-I 0 W/m 8,0 km/h (2 Bft)
06.02.2007 03:54 0,5 C 100 % 1008,0 hPa 0,0 mm 11,8 km/h (2 Bft) S-SW 210 0 UV-I 0 W/m 11,8 km/h (2 Bft)
06.02.2007 04:09 0,5 C 100 % 1008,0 hPa 0,0 mm 6,7 km/h (2 Bft) SW 235 0 UV-I 0 W/m 6,7 km/h (2 Bft)
06.02.2007 04:24 0,5 C 100 % 1008,0 hPa 0,0 mm 0,0 km/h (0 Bft) SW 230 0 UV-I 0 W/m 0,0 km/h (0 Bft)
06.02.2007 04:39 0,5 C 100 % 1008,0 hPa 0,0 mm 0,0 km/h (0 Bft) SW 225 0 UV-I 0 W/m 0,0 km/h (0 Bft)
06.02.2007 04:53 0,6 C 100 % 1007,0 hPa 0,0 mm 15,6 km/h (3 Bft) SW 230 0 UV-I 0 W/m 15,6 km/h (3 Bft)
06.02.2007 05:08 0,6 C 100 % 1007,0 hPa 0,0 mm 7,9 km/h (2 Bft) SW 225 0 UV-I 0 W/m 7,9 km/h (2 Bft)
06.02.2007 05:23 0,6 C 100 % 1007,0 hPa 0,0 mm 0,0 km/h (0 Bft) SW 225 0 UV-I 0 W/m 0,0 km/h (0 Bft)
06.02.2007 05:38 0,5 C 100 % 1007,0 hPa 0,0 mm 7,6 km/h (2 Bft) SW 220 0 UV-I 0 W/m 7,6 km/h (2 Bft)
06.02.2007 05:54 0,6 C 100 % 1007,0 hPa 0,0 mm 14,5 km/h (3 Bft) SW 225 0 UV-I 0 W/m 14,5 km/h (3 Bft)
06.02.2007 06:09 0,6 C 100 % 1007,0 hPa 0,0 mm 13,0 km/h (3 Bft) SW 225 0 UV-I 0 W/m 13,0 km/h (3 Bft)
06.02.2007 06:24 0,5 C 100 % 1007,0 hPa 0,0 mm 24,8 km/h (4 Bft) SW 230 0 UV-I 0 W/m 24,8 km/h (4 Bft)
06.02.2007 06:38 0,6 C 100 % 1007,0 hPa 0,0 mm 0,0 km/h (0 Bft) W-SW 255 0 UV-I 0 W/m 0,0 km/h (0 Bft)
06.02.2007 06:53 0,7 C 100 % 1007,0 hPa 0,0 mm 0,0 km/h (0 Bft) W 260 0 UV-I 0 W/m 0,0 km/h (0 Bft)
06.02.2007 07:08 0,7 C 100 % 1007,0 hPa 0,0 mm 0,0 km/h (0 Bft) SW 230 0 UV-I 0 W/m 0,0 km/h (0 Bft)
06.02.2007 07:23 0,6 C 100 % 1007,0 hPa 0,0 mm 0,0 km/h (0 Bft) SW 225 0 UV-I 0 W/m 0,0 km/h (0 Bft)
06.02.2007 07:38 0,8 C 100 % 1007,0 hPa 0,0 mm 9,4 km/h (2 Bft) W-SW 255 0 UV-I 0 W/m 9,4 km/h (2 Bft)
06.02.2007 07:54 0,9 C 100 % 1007,0 hPa 0,0 mm 7,2 km/h (2 Bft) W-SW 255 0 UV-I 0 W/m 7,2 km/h (2 Bft)
06.02.2007 08:09 0,9 C 100 % 1007,0 hPa 0,0 mm 8,7 km/h (2 Bft) W 260 0 UV-I 0 W/m 8,7 km/h (2 Bft)
06.02.2007 08:23 1,0 C 99 % 1007,0 hPa 0,0 mm 12,0 km/h (2 Bft) W-SW 255 0 UV-I 0 W/m 12,0 km/h (2 Bft)
06.02.2007 08:38 1,0 C 98 % 1007,0 hPa 0,0 mm 8,4 km/h (2 Bft) W 260 0 UV-I 0 W/m 8,4 km/h (2 Bft)
06.02.2007 08:53 1,1 C 98 % 1007,0 hPa 0,0 mm 11,4 km/h (2 Bft) W-NW 295 0 UV-I 0 W/m 11,4 km/h (2 Bft)
06.02.2007 09:08 0,9 C 98 % 1007,0 hPa 0,0 mm 15,3 km/h (3 Bft) W-NW 290 0 UV-I 0 W/m 15,3 km/h (3 Bft)
06.02.2007 09:24 0,7 C 98 % 1007,0 hPa 0,0 mm 20,3 km/h (4 Bft) W-NW 300 0 UV-I 0 W/m 20,3 km/h (4 Bft)
06.02.2007 09:39 0,6 C 98 % 1007,0 hPa 0,0 mm 16,4 km/h (3 Bft) W 270 0 UV-I 0 W/m 16,4 km/h (3 Bft)
06.02.2007 09:53 0,5 C 98 % 1007,0 hPa 0,0 mm 12,5 km/h (3 Bft) W 275 0 UV-I 0 W/m 12,5 km/h (3 Bft)
06.02.2007 10:08 0,5 C 99 % 1006,0 hPa 0,0 mm 9,2 km/h (2 Bft) W-NW 290 0 UV-I 0 W/m 9,2 km/h (2 Bft)
06.02.2007 10:23 0,5 C 99 % 1006,0 hPa 0,0 mm 10,9 km/h (2 Bft) W 260 0 UV-I 0 W/m 10,9 km/h (2 Bft)
06.02.2007 10:38 0,3 C 98 % 1007,0 hPa 0,0 mm 13,1 km/h (3 Bft) W-NW 290 0 UV-I 0 W/m 13,1 km/h (3 Bft)
06.02.2007 10:53 0,4 C 99 % 1006,0 hPa 0,0 mm 9,8 km/h (2 Bft) W-NW 295 0 UV-I 0 W/m 9,8 km/h (2 Bft)
06.02.2007 11:09 0,4 C 99 % 1006,0 hPa 0,0 mm 11,5 km/h (2 Bft) W-NW 300 0 UV-I 0 W/m 11,5 km/h (2 Bft)
06.02.2007 11:24 0,6 C 99 % 1006,0 hPa 0,0 mm 6,1 km/h (2 Bft) W 280 0 UV-I 0 W/m 6,1 km/h (2 Bft)
06.02.2007 11:39 0,7 C 100 % 1006,0 hPa 0,0 mm 6,5 km/h (2 Bft) W 260 0 UV-I 0 W/m 6,5 km/h (2 Bft)
06.02.2007 11:53 0,8 C 100 % 1006,0 hPa 0,0 mm 7,8 km/h (2 Bft) W 265 0 UV-I 0 W/m 7,8 km/h (2 Bft)
06.02.2007 12:08 0,9 C 100 % 1006,0 hPa 0,0 mm 0,0 km/h (0 Bft) W 265 0 UV-I 0 W/m 0,0 km/h (0 Bft)
06.02.2007 12:23 1,2 C 99 % 1006,0 hPa 0,0 mm 0,0 km/h (0 Bft) SW 230 0 UV-I 0 W/m 0,0 km/h (0 Bft)
06.02.2007 12:38 1,6 C 98 % 1006,0 hPa 0,4 mm 6,6 km/h (2 Bft) SW 230 0 UV-I 0 W/m 6,6 km/h (2 Bft)
06.02.2007 12:54 1,8 C 97 % 1005,0 hPa 0,0 mm 0,0 km/h (0 Bft) W 265 0 UV-I 0 W/m 0,0 km/h (0 Bft)
06.02.2007 13:09 2,4 C 93 % 1005,0 hPa 0,0 mm 10,3 km/h (2 Bft) W 275 0 UV-I 0 W/m 10,3 km/h (2 Bft)
06.02.2007 13:24 2,6 C 88 % 1005,0 hPa 0,0 mm 9,4 km/h (2 Bft) W-NW 290 0 UV-I 0 W/m 9,4 km/h (2 Bft)
06.02.2007 13:38 2,6 C 85 % 1005,0 hPa 0,0 mm 10,5 km/h (2 Bft) SW 220 0 UV-I 0 W/m 10,5 km/h (2 Bft)
06.02.2007 13:53 2,8 C 80 % 1005,0 hPa 0,0 mm 9,4 km/h (2 Bft) W 275 0 UV-I 0 W/m 9,4 km/h (2 Bft)
06.02.2007 14:08 3,2 C 79 % 1005,0 hPa 0,0 mm 9,7 km/h (2 Bft) SW 225 0 UV-I 0 W/m 9,7 km/h (2 Bft)
06.02.2007 14:23 3,5 C 76 % 1005,0 hPa 0,0 mm 0,0 km/h (0 Bft) W 270 0 UV-I 0 W/m 0,0 km/h (0 Bft)
06.02.2007 14:38 4,0 C 72 % 1005,0 hPa 0,0 mm 14,0 km/h (3 Bft) SW 225 0 UV-I 0 W/m 14,0 km/h (3 Bft)
06.02.2007 14:53 2,1 C 79 % 1005,0 hPa 0,0 mm 11,8 km/h (2 Bft) W 260 0 UV-I 0 W/m 11,8 km/h (2 Bft)
06.02.2007 15:08 1,8 C 85 % 1004,0 hPa 0,0 mm 0,0 km/h (0 Bft) W-NW 285 0 UV-I 0 W/m 0,0 km/h (0 Bft)
06.02.2007 15:24 1,8 C 88 % 1004,0 hPa 0,0 mm 0,0 km/h (0 Bft) W-SW 250 0 UV-I 0 W/m 0,0 km/h (0 Bft)
06.02.2007 15:39 2,6 C 89 % 1004,0 hPa 0,0 mm 7,8 km/h (2 Bft) SW 215 0 UV-I 0 W/m 7,8 km/h (2 Bft)
06.02.2007 15:54 2,8 C 85 % 1004,0 hPa 0,0 mm 0,0 km/h (0 Bft) W-SW 255 0 UV-I 0 W/m 0,0 km/h (0 Bft)
06.02.2007 16:09 2,4 C 80 % 1004,0 hPa 0,0 mm 0,0 km/h (0 Bft) W-SW 255 0 UV-I 0 W/m 0,0 km/h (0 Bft)
06.02.2007 16:23 2,7 C 78 % 1004,0 hPa 0,0 mm 3,2 km/h (1 Bft) SW 230 0 UV-I 0 W/m 3,2 km/h (1 Bft)
06.02.2007 16:38 2,3 C 77 % 1004,0 hPa 0,0 mm 7,9 km/h (2 Bft) SW 220 0 UV-I 0 W/m 7,9 km/h (2 Bft)
06.02.2007 16:53 1,8 C 79 % 1004,0 hPa 0,0 mm 0,0 km/h (0 Bft) S-SW 195 0 UV-I 0 W/m 0,0 km/h (0 Bft)
06.02.2007 17:08 1,4 C 79 % 1004,0 hPa 0,0 mm 0,0 km/h (0 Bft) S-SW 200 0 UV-I 0 W/m 0,0 km/h (0 Bft)
06.02.2007 17:24 1,0 C 80 % 1004,0 hPa 0,0 mm 0,0 km/h (0 Bft) S 190 0 UV-I 0 W/m 0,0 km/h (0 Bft)
06.02.2007 17:39 0,7 C 84 % 1004,0 hPa 0,0 mm 0,0 km/h (0 Bft) S 190 0 UV-I 0 W/m 0,0 km/h (0 Bft)
06.02.2007 17:53 0,4 C 86 % 1003,0 hPa 0,0 mm 0,0 km/h (0 Bft) S 185 0 UV-I 0 W/m 0,0 km/h (0 Bft)
06.02.2007 18:08 0,2 C 86 % 1004,0 hPa 0,0 mm 0,0 km/h (0 Bft) S-SO 165 0 UV-I 0 W/m 0,0 km/h (0 Bft)
06.02.2007 18:23 0,0 C 86 % 1004,0 hPa 0,0 mm 0,0 km/h (0 Bft) S 180 0 UV-I 0 W/m 0,0 km/h (0 Bft)
06.02.2007 18:38 -0,1 C 87 % 1004,0 hPa 0,0 mm 0,0 km/h (0 Bft) S 170 0 UV-I 0 W/m 0,0 km/h (0 Bft)
06.02.2007 18:53 0,0 C 88 % 1004,0 hPa 0,0 mm 0,0 km/h (0 Bft) S 185 0 UV-I 0 W/m 0,0 km/h (0 Bft)
06.02.2007 19:09 -0,2 C 88 % 1004,0 hPa 0,0 mm 0,0 km/h (0 Bft) S 170 0 UV-I 0 W/m 0,0 km/h (0 Bft)
06.02.2007 19:19 -0,2 C 89 % 1004,0 hPa 0,0 mm 0,0 km/h (0 Bft) S 170 0 UV-I 0 W/m 0,0 km/h (0 Bft)
06.02.2007 19:34 0,0 C 90 % 1003,0 hPa 0,0 mm 0,0 km/h (0 Bft) S 180 0 UV-I 0 W/m 0,0 km/h (0 Bft)
06.02.2007 19:48 -0,1 C 89 % 1003,0 hPa 0,0 mm 0,0 km/h (0 Bft) SO 140 0 UV-I 0 W/m 0,0 km/h (0 Bft)
06.02.2007 20:03 -0,6 C 89 % 1003,0 hPa 0,0 mm 0,0 km/h (0 Bft) SO 140 0 UV-I 0 W/m 0,0 km/h (0 Bft)
06.02.2007 20:18 -0,6 C 90 % 1003,0 hPa 0,0 mm 0,0 km/h (0 Bft) SO 140 0 UV-I 0 W/m 0,0 km/h (0 Bft)
06.02.2007 20:33 -1,0 C 91 % 1003,0 hPa 0,0 mm 0,0 km/h (0 Bft) SO 140 0 UV-I 0 W/m 0,0 km/h (0 Bft)
06.02.2007 20:49 -0,9 C 92 % 1004,0 hPa 0,0 mm 0,0 km/h (0 Bft) S 170 0 UV-I 0 W/m 0,0 km/h (0 Bft)
06.02.2007 21:04 -1,1 C 92 % 1003,0 hPa 0,0 mm 0,0 km/h (0 Bft) S 170 0 UV-I 0 W/m 0,0 km/h (0 Bft)
06.02.2007 21:19 -1,3 C 93 % 1003,0 hPa 0,0 mm 0,0 km/h (0 Bft) S 170 0 UV-I 0 W/m 0,0 km/h (0 Bft)
06.02.2007 21:33 -1,1 C 94 % 1003,0 hPa 0,0 mm 0,0 km/h (0 Bft) S 170 0 UV-I 0 W/m 0,0 km/h (0 Bft)
06.02.2007 21:48 -1,7 C 94 % 1003,0 hPa 0,0 mm 0,0 km/h (0 Bft) S 170 0 UV-I 0 W/m 0,0 km/h (0 Bft)
06.02.2007 22:03 -2,3 C 94 % 1003,0 hPa 0,0 mm 0,0 km/h (0 Bft) S 170 0 UV-I 0 W/m 0,0 km/h (0 Bft)
06.02.2007 22:18 -2,3 C 95 % 1003,0 hPa 0,0 mm 0,0 km/h (0 Bft) S 170 0 UV-I 0 W/m 0,0 km/h (0 Bft)
06.02.2007 22:34 -2,4 C 96 % 1003,0 hPa 0,0 mm 0,0 km/h (0 Bft) S 170 0 UV-I 0 W/m 0,0 km/h (0 Bft)
06.02.2007 22:49 -2,3 C 97 % 1002,0 hPa 0,0 mm 0,0 km/h (0 Bft) S 170 0 UV-I 0 W/m 0,0 km/h (0 Bft)
06.02.2007 23:03 -2,6 C 97 % 1003,0 hPa 0,0 mm 0,0 km/h (0 Bft) S 170 0 UV-I 0 W/m 0,0 km/h (0 Bft)
06.02.2007 23:18 -2,2 C 98 % 1002,0 hPa 0,0 mm 0,0 km/h (0 Bft) S 170 0 UV-I 0 W/m 0,0 km/h (0 Bft)
06.02.2007 23:33 -2,6 C 98 % 1002,0 hPa 0,0 mm 0,0 km/h (0 Bft) S 170 0 UV-I 0 W/m 0,0 km/h (0 Bft)
06.02.2007 23:48 -2,7 C 99 % 1002,0 hPa 0,0 mm 0,0 km/h (0 Bft) S 170 0 UV-I 0 W/m 0,0 km/h (0 Bft)
_ Min-Zeit 23:48 14:38 22:49 - 00:38 - - - - 00:38
Minimum _ -2,7 C 72 % 1002,0 hPa - 0,0 km/h (0 Bft) - - - - 0,0 km/h (0 Bft)
_ Max-Zeit 14:38 01:38 00:08 12:38 06:24 - - 00:08 00:08 06:24
Maximum _ 4,0 C 100 % 1010,0 hPa 0,4 mm 24,8 km/h
SW (4 Bft)
- - 0 UV-I 0 W/m 24,8 km/h
N (4 Bft)
Durchschnitt _ 0,6 C 94 % 1005,7 hPa #0,4 mm 4,8 km/h (1 Bft) SW - 0 UV-I 0 W/m 4,8 km/h (1 Bft)